• Join FlightAware (Why Join?)
  • Login
  • US Flag 
06:00PM EDT


 

Airport Tracker/Info


-or-


 

Live Flight TrackerFlight Track Log ✈ JZA8278 ✈ 23-Jun-2013 ✈ CYVR - CYPR

Flight Track Log - Related Links

Times and Time Zones

All times are in EDT time to prevent confusion due to time zone crossing. See the JZA8278 flight status page for this flight to view local times or setup timezone preferences in your user account.

Time Position Orientation Groundspeed Altitude Reporting Facility
EDT Latitude Longitude Course Direction KTS MPH feet Rate Location/Type
11:30AM 49.1667 -123.1833 334° Northwest 130 150 500  Level Vancouver Center
11:31AM 49.1667 -123.2333 270° West 140 161 2,100 1,440 Climbing Vancouver Center
11:32AM 49.1833 -123.3167 287° West 150 173 3,400 1,320 Climbing Vancouver Center
11:33AM 49.2000 -123.3667 297° West 150 173 4,800 1,320 Climbing Vancouver Center
11:34AM 49.2793 -123.3021 331° Northwest  Level FlightAware Approximate
11:34AM 49.2333 -123.4167 316° Northwest 170 196 6,100  Level Vancouver Center
11:35AM 49.3449 -123.3587 334° Northwest  Level FlightAware Approximate
11:35AM 49.2667 -123.4667 316° Northwest 170 196 7,400  Level Vancouver Center
11:36AM 49.3000 -123.5167 316° Northwest 180 207 8,400 1,140 Climbing Vancouver Center
11:37AM 49.3333 -123.5667 316° Northwest 190 219 9,700 1,200 Climbing Vancouver Center
11:38AM 49.3667 -123.6500 302° West 190 219 10,900 1,140 Climbing Vancouver Center
11:39AM 49.4000 -123.7000 316° Northwest 190 219 12,000 1,140 Climbing Vancouver Center
11:40AM 49.4500 -123.7500 327° Northwest 190 219 13,200 1,140 Climbing Vancouver Center
11:41AM 49.4833 -123.8000 316° Northwest 190 219 14,300 900 Climbing Vancouver Center
11:42AM 49.5333 -123.8500 327° Northwest 190 219 15,100 840 Climbing Vancouver Center
11:43AM 49.5667 -123.9000 316° Northwest 200 230 16,000 720 Climbing Vancouver Center
11:44AM 49.6167 -123.9833 313° West 200 230 16,600 600 Climbing Vancouver Center
11:45AM 49.6667 -124.0333 327° Northwest 210 242 17,300 720 Climbing Vancouver Center
11:46AM 49.7167 -124.0833 327° Northwest 210 242 18,100 660 Climbing Vancouver Center
11:47AM 49.7500 -124.1333 316° Northwest 220 253 18,700 600 Climbing Vancouver Center
11:48AM 49.8000 -124.2167 313° West 220 253 19,400 600 Climbing Vancouver Center
11:49AM 49.8500 -124.2667 327° Northwest 220 253 19,900 540 Climbing Vancouver Center
11:50AM 49.9000 -124.3167 327° Northwest 220 253 20,500 600 Climbing Vancouver Center
11:51AM 49.9333 -124.4000 302° West 220 253 21,100 540 Climbing Vancouver Center
11:52AM 49.9833 -124.4500 327° Northwest 220 253 21,600 420 Climbing Vancouver Center
11:53AM 50.0333 -124.5000 327° Northwest 220 253 22,000 180 Climbing Vancouver Center
11:54AM 50.0833 -124.5833 313° West 230 265 22,000  Level Vancouver Center
11:55AM 50.1333 -124.6333 327° Northwest 240 276 22,000  Level Vancouver Center
11:56AM 50.1833 -124.7167 313° West 250 288 22,000  Level Vancouver Center
11:57AM 50.2500 -124.7667 334° Northwest 260 299 22,000  Level Vancouver Center
11:58AM 50.3000 -124.8500 313° West 260 299 22,000  Level Vancouver Center
11:59AM 50.3500 -124.9167 320° Northwest 260 299 22,000  Level Vancouver Center
12:00PM 50.4167 -125.0000 321° Northwest 260 299 22,000  Level Vancouver Center
12:01PM 50.4667 -125.0500 328° Northwest 260 299 22,000  Level Vancouver Center
12:02PM 50.5167 -125.1333 313° West 260 299 22,000  Level Vancouver Center
12:03PM 50.5833 -125.2167 322° Northwest 260 299 22,000  Level Vancouver Center
12:04PM 50.6333 -125.3000 313° West 260 299 22,000  Level Vancouver Center
12:05PM 50.6833 -125.3833 313° West 260 299 22,000  Level Vancouver Center
12:06PM 50.7500 -125.4333 335° Northwest 260 299 22,000  Level Vancouver Center
12:07PM 50.8000 -125.5167 314° West 260 299 22,000  Level Vancouver Center
12:08PM 50.8500 -125.6000 314° West 260 299 22,000  Level Vancouver Center
12:09PM 50.9167 -125.6833 322° Northwest 270 311 22,000  Level Vancouver Center
12:10PM 50.9667 -125.7667 314° West 270 311 22,000  Level Vancouver Center
12:11PM 51.0167 -125.8500 314° West 270 311 22,000  Level Vancouver Center
12:12PM 51.0667 -125.9000 328° Northwest 270 311 22,000  Level Vancouver Center
12:13PM 51.1333 -125.9833 322° Northwest 270 311 22,000  Level Vancouver Center
12:14PM 51.1833 -126.0667 314° West 270 311 22,000  Level Vancouver Center
12:15PM 51.2500 -126.1500 322° Northwest 270 311 22,000  Level Vancouver Center
12:16PM 51.3000 -126.2333 314° West 270 311 22,000  Level Vancouver Center
12:17PM 51.3667 -126.3167 322° Northwest 270 311 22,000  Level Vancouver Center
12:18PM 51.4167 -126.4000 314° West 270 311 22,000  Level Vancouver Center
12:19PM 51.4833 -126.4833 322° Northwest 270 311 22,000  Level Vancouver Center
12:20PM 51.5500 -126.5667 322° Northwest 280 322 22,000  Level Vancouver Center
12:21PM 51.6000 -126.6167 328° Northwest 280 322 22,000  Level Vancouver Center
12:22PM 51.6500 -126.7000 314° West 280 322 22,000  Level Vancouver Center
12:23PM 51.7000 -126.7833 314° West 280 322 22,000  Level Vancouver Center
12:25PM 51.8167 -126.9667 316° Northwest 270 311 22,000  Level Vancouver Center
12:26PM 51.8833 -127.0500 322° Northwest 270 311 22,000  Level Vancouver Center
12:27PM 51.9333 -127.1333 314° West 270 311 22,000  Level Vancouver Center
12:28PM 52.0000 -127.2167 322° Northwest 270 311 22,000  Level Vancouver Center
12:29PM 52.0500 -127.3000 314° West 270 311 22,000  Level Vancouver Center
12:30PM 52.1000 -127.3833 314° West 270 311 22,000  Level Vancouver Center
12:31PM 52.1500 -127.4667 314° West 270 311 22,000  Level Vancouver Center
12:32PM 52.2167 -127.5333 329° Northwest 270 311 22,000  Level Vancouver Center
12:33PM 52.2667 -127.6167 314° West 270 311 22,000  Level Vancouver Center
12:34PM 52.3333 -127.7000 323° Northwest 270 311 22,000  Level Vancouver Center
12:35PM 52.3833 -127.7833 315° West 270 311 22,000  Level Vancouver Center
12:36PM 52.4333 -127.8833 309° West 270 311 22,000  Level Vancouver Center
12:37PM 52.4833 -127.9667 315° West 280 322 22,000  Level Vancouver Center
12:38PM 52.5500 -128.0500 323° Northwest 270 311 22,000  Level Vancouver Center
12:39PM 52.6000 -128.1167 321° Northwest 270 311 22,000  Level Vancouver Center
12:40PM 52.6667 -128.2333 313° West 270 311 22,000  Level Vancouver Center
12:41PM 52.7167 -128.2833 329° Northwest 270 311 22,000  Level Vancouver Center
12:42PM 52.7667 -128.3833 310° West 270 311 22,000  Level Vancouver Center
12:43PM 52.8167 -128.4667 315° West 270 311 22,000  Level Vancouver Center
12:44PM 52.8833 -128.5500 323° Northwest 270 311 22,000  Level Vancouver Center
12:45PM 52.9333 -128.6500 310° West 270 311 22,000  Level Vancouver Center
12:46PM 53.0000 -128.7333 323° Northwest 280 322 22,000  Level Vancouver Center
12:47PM 53.0333 -128.8167 304° West 280 322 22,000  Level Vancouver Center
12:48PM 53.1000 -128.9167 318° Northwest 280 322 22,000  Level Vancouver Center
12:49PM 53.1500 -129.0000 315° West 280 322 22,000  Level Vancouver Center
12:50PM 53.2167 -129.1000 318° Northwest 280 322 22,000  Level Vancouver Center
12:51PM 53.2833 -129.1833 323° Northwest 280 322 22,000 -240 Level Vancouver Center
12:52PM 53.3167 -129.2833 299° West 280 322 21,600 -900 Descending Vancouver Center
12:53PM 53.3833 -129.3667 323° Northwest 300 345 20,300 -1,440 Descending Vancouver Center
12:54PM 53.4667 -129.5000 316° Northwest 330 380 18,800 -1,500 Descending Vancouver Center
12:55PM 53.5333 -129.5833 323° Northwest 330 380 17,400 -1,440 Descending Vancouver Center
12:56PM 53.5833 -129.6833 310° West 320 368 16,000 -1,440 Descending Vancouver Center
12:57PM 53.6500 -129.8000 314° West 330 380 14,600 -1,440 Descending Vancouver Center
12:58PM 53.7167 -129.9000 318° Northwest 320 368 13,200 -1,380 Descending Vancouver Center
12:59PM 53.7667 -129.9833 315° West 300 345 11,900 -1,440 Descending Vancouver Center
01:00PM 53.8333 -130.0833 319° Northwest 300 345 10,400 -1,620 Descending Vancouver Center
01:01PM 53.9167 -130.1500 335° Northwest 300 345 8,700 -1,740 Descending Vancouver Center
01:02PM 53.9833 -130.2167 330° Northwest 290 334 7,000 -1,800 Descending Vancouver Center
01:03PM 54.0500 -130.2500 344° North 260 299 5,100 -1,500 Descending Vancouver Center
01:04PM 54.0833 -130.3167 310° West 230 265 4,000 -1,140 Descending Vancouver Center
01:05PM 54.1333 -130.3500 339° North 200 230 2,900 -1,080 Descending Vancouver Center
01:06PM 54.1833 -130.3833 339° North 180 207 1,900 -900 Descending Vancouver Center
01:07PM 54.2167 -130.4167 330° Northwest 160 184 1,200 -780 Descending Vancouver Center
01:08PM 54.2667 -130.4667 330° Northwest 140 161 400 -840 Descending Vancouver Center